Rogers Spring, Nevada Weather observations

Data are for 10 minute period ending at time listed.
 Day   Time   Solar   Ave.   Ave.  Ave.  Vector  Max.   Baro.   Total    
  of    of     Rad.   Air    Rel.  Wind   Wind   Wind  Press.  Precip.   
Year   Day            Temp.  Hum.  Speed  Dir.   Gust                    
2014   (PST)  Kw/m2    F      %     mph   deg.    mph    mb.     in.     
-------------------------------------------------------------------------
 265   19:50   0.00   78.1    18    2.4   159     3.7   932.8    0.00 
 265   20:00   0.00   74.0    24    1.6   249     3.1   932.8    0.00 
 265   20:10   0.00   70.4    28    0.4   198     1.3   932.9    0.00 
 265   20:20   0.00   69.7    27    1.9   160     3.6   933.0    0.00 
 265   20:30   0.00   71.6    26    2.8   146     4.2   933.1    0.00 
 265   20:40   0.00   74.6    23    3.1   142     5.7   933.1    0.00 
 265   20:50   0.00   76.1    22    3.0   113     5.1   933.2    0.00 
 265   21:00   0.00   76.1    20    2.8   104     5.3   933.3    0.00 
 265   21:10   0.00   75.7    21    3.0    82     5.2   933.3    0.00 
 265   21:20   0.00   74.6    21    3.2    90     4.8   933.3    0.00 
 265   21:30   0.00   73.3    22    3.2    88     4.5   933.3    0.00 
 265   21:40   0.00   72.0    23    3.0    74     4.5   933.4    0.00 
 265   21:50   0.00   71.4    24    3.1    77     4.9   933.4    0.00 
 265   22:00   0.00   71.9    23    3.2    85     4.5   933.5    0.00 
 265   22:10   0.00   72.3    23    3.4    99     5.3   933.6    0.00 
 265   22:20   0.00   73.0    22    3.3    91     4.7   933.5    0.00 
 265   22:30   0.00   70.9    25    2.6    78     3.5   933.5    0.00 
 265   22:40   0.00   67.9    30    1.1    83     3.2   933.6    0.00 
 265   22:50   0.00   65.0    32    1.6    53     5.0   933.6    0.00 
 265   23:00   0.00   70.0    25    3.6    87     5.4   933.5    0.00 
 265   23:10   0.00   71.3    24    1.8   107     4.7   933.6    0.00 
 265   23:20   0.00   72.1    23    2.4   104     3.9   933.5    0.00 
 265   23:30   0.00   69.5    26    3.0    57     5.3   933.6    0.00 
 265   23:40   0.00   64.2    32    3.4    52     5.7   933.6    0.00 
 265   23:50   0.00   66.1    29    3.9    61     6.0   933.6    0.00 
 266    0:00   0.00   67.0    28    1.4    39     3.3   933.8    0.00 
 266    0:10   0.00   66.4    27    3.6    81     5.4   933.9    0.00 
 266    0:20   0.00   68.7    25    4.0    90     7.5   934.0    0.00 
 266    0:30   0.00   69.2    24    2.0    94     4.0   934.1    0.00 
 266    0:40   0.00   66.4    28    3.6    89     5.8   934.1    0.00 
 266    0:50   0.00   66.3    28    2.8    83     4.8   934.1    0.00 
 266    1:00   0.00   64.2    31    1.6    65     2.8   934.1    0.00 
 266    1:10   0.00   60.8    37    1.0   232     2.3   934.1    0.00 
 266    1:20   0.00   58.5    41    1.9    53     2.6   933.9    0.00 
 266    1:30   0.00   57.9    43    1.5    22     2.7   933.7    0.00 
 266    1:40   0.00   56.6    44    2.0    32     3.2   933.6    0.00 
 266    1:50   0.00   55.7    49    1.4    34     2.4   933.5    0.00 
 266    2:00   0.00   56.8    47    3.4    56     4.7   933.4    0.00 
 266    2:10   0.00   58.0    42    2.9    54     4.2   933.3    0.00 
 266    2:20   0.00   57.5    44    1.2    53     2.6   933.4    0.00 
 266    2:30   0.00   55.2    46    1.2   167     3.6   933.3    0.00 
 266    2:40   0.00   55.3    45    1.0   189     2.4   933.3    0.00 
 266    2:50   0.00   55.7    45    0.6   178     2.9   933.3    0.00 
 266    3:00   0.00   53.9    53    2.2    44     3.3   933.4    0.00 
 266    3:10   0.00   56.0    49    1.8    71     3.7   933.4    0.00 
 266    3:20   0.00   53.8    56    2.1    52     3.7   933.4    0.00 
 266    3:30   0.00   55.9    49    2.2    78     3.4   933.4    0.00 
 266    3:40   0.00   58.7    44    2.8    70     4.8   933.4    0.00 
 266    3:50   0.00   60.3    41    2.1    75     4.1   933.5    0.00 
 266    4:00   0.00   62.8    37    2.3    75     3.6   933.6    0.00 
 266    4:10   0.00   59.3    41    3.1    64     4.5   933.7    0.00 
 266    4:20   0.00   58.2    42    3.7    76     4.8   933.7    0.00 
 266    4:30   0.00   60.5    40    3.8    84     6.2   933.7    0.00 
 266    4:40   0.00   65.3    35    3.4    91     5.7   933.7    0.00 
 266    4:50   0.00   65.9    34    3.5    89     6.0   933.8    0.00 
 266    5:00   0.00   61.9    40    2.7    55     4.1   934.0    0.00 
 266    5:10   0.00   57.8    48    2.1    64     3.9   934.1    0.00 
 266    5:20   0.00   55.5    52    0.8    53     3.1   934.3    0.00 
 266    5:30   0.00   53.7    53    2.5    56     3.7   934.3    0.00 
 266    5:40   0.01   53.4    52    3.6    45     4.4   934.3    0.00 
 266    5:50   0.01   54.2    47    1.9    30     3.5   934.5    0.00 
 266    6:00   0.04   54.5    47    0.9    34     1.9   934.5    0.00 
 266    6:10   0.07   56.4    46    1.3    85     2.1   934.5    0.00 
 266    6:20   0.10   58.4    47    1.6    49     3.3   934.5    0.00 
 266    6:30   0.12   60.3    44    1.0   350     2.4   934.6    0.00 
 266    6:40   0.15   62.5    39    1.1   337     2.1   934.8    0.00 
 266    6:50   0.18   64.8    34    1.6     3     2.6   935.0    0.00 
 266    7:00   0.22   67.4    32    1.4   346     2.5   935.3    0.00 
 266    7:10   0.26   70.3    29    1.6   326     2.6   935.5    0.00 
 266    7:20   0.29   72.1    27    1.2   316     2.3   935.6    0.00 
 266    7:30   0.33   73.7    27    1.4    12     2.6   935.8    0.00 
 266    7:40   0.36   75.7    25    0.4     3     2.3   935.9    0.00 
 266    7:50   0.39   77.3    25    0.8   238     2.3   936.0    0.00 
 266    8:00   0.42   78.4    25    0.7   265     1.9   935.9    0.00 
 266    8:10   0.46   79.7    24    0.8   239     2.8   935.9    0.00 
 266    8:20   0.49   81.2    24    1.3   240     3.7   935.9    0.00 
 266    8:30   0.52   81.9    23    2.3   248     4.7   935.9    0.00 
 266    8:40   0.55   82.1    23    2.0   268     3.7   935.9    0.00 
 266    8:50   0.58   83.9    20    1.6   140     4.4   935.8    0.00 
 266    9:00   0.60   84.9    19    2.6    32     4.3   935.6    0.00 
 266    9:10   0.63   85.7    18    2.3    64     5.3   935.5    0.00 
 266    9:20   0.65   86.8    17    2.3    84     5.0   935.5    0.00 
 266    9:30   0.68   87.2    17    2.5    60     5.0   935.4    0.00 
 266    9:40   0.70   87.3    17    2.4    54     5.5   935.3    0.00 
 266    9:50   0.72   88.6    16    2.0   355     4.1   935.1    0.00 
 266   10:00   0.73   89.2    15    2.9    75     6.4   935.0    0.00 
 266   10:10   0.75   89.8    14    2.6   186     6.4   935.0    0.00 
 266   10:20   0.77   91.1    14    3.2   162     7.6   934.9    0.00 
 266   10:30   0.78   91.2    14    4.0   173     7.7   934.8    0.00 
 266   10:40   0.79   91.9    14    2.9   178     6.8   934.8    0.00 
 266   10:50   0.80   92.0    13    4.6   165     9.0   934.7    0.00 
 266   11:00   0.81   92.5    13    4.4   176     9.4   934.6    0.00 
 266   11:10   0.82   93.1    13    3.8   186     8.0   934.6    0.00 
 266   11:20   0.82   93.7    13    5.0   171    10.3   934.5    0.00 
 266   11:30   0.83   93.4    13    3.6   200     7.8   934.4    0.00 
 266   11:40   0.83   93.6    13    3.7   209    12.3   934.4    0.00 
 266   11:50   0.83   94.0    13    4.9   184    10.7   934.3    0.00 
 266   12:00   0.83   94.9    13    5.3   215    10.5   934.1    0.00 
 266   12:10   0.82   95.1    12    4.7   202    11.2   934.1    0.00 
 266   12:20   0.82   95.6    12    5.3   195    11.2   934.0    0.00 
 266   12:30   0.81   95.6    12    4.5   194    11.0   933.9    0.00 
 266   12:40   0.80   95.6    12    5.3   189    11.3   933.7    0.00 
 266   12:50   0.79   96.2    12    4.3   206    10.8   933.6    0.00 
 266   13:00   0.78   96.2    11    6.0   188    11.8   933.5    0.00 
 266   13:10   0.76   95.6    11    4.9   201    13.2   933.4    0.00 
 266   13:20   0.75   96.1    11    5.5   197    11.1   933.3    0.00 
 266   13:30   0.73   96.8    11    5.4   183    14.1   933.2    0.00 
 266   13:40   0.71   97.1    11    5.2   221    10.2   933.0    0.00 
 266   13:50   0.70   97.2    10    6.5   192    12.5   932.9    0.00 
 266   14:00   0.68   97.4    10    5.6   199    11.0   932.7    0.00 
 266   14:10   0.65   97.2    10    7.4   188    14.6   932.6    0.00 
 266   14:20   0.62   96.9    10    6.4   205    12.4   932.6    0.00 
 266   14:30   0.60   97.0    10    6.2   189    12.1   932.4    0.00 
 266   14:40   0.57   97.0    10    5.5   194    11.8   932.3    0.00 
 266   14:50   0.54   96.9    10    5.6   188    10.4   932.2    0.00 
 266   15:00   0.52   97.1    10    5.4   190    12.3   932.1    0.00 
 266   15:10   0.48   96.8    10    5.6   199    11.4   932.0    0.00 
 266   15:20   0.45   96.5    10    5.9   190    13.2   932.0    0.00 
 266   15:30   0.42   96.2    10    6.7   190    15.7   931.9    0.00 
 266   15:40   0.38   95.9    11    5.8   206    10.9   931.7    0.00 
 266   15:50   0.35   96.0    10    5.1   185     9.6   931.7    0.00 
 266   16:00   0.31   95.5    11    6.4   192    12.1   931.6    0.00 
 266   16:10   0.28   95.1    11    4.4   196     8.7   931.5    0.00 
 266   16:20   0.24   95.2    11    4.8   184     9.3   931.4    0.00 
 266   16:30   0.21   94.7    11    5.4   192     9.5   931.4    0.00 
 266   16:40   0.17   94.2    11    4.4   172     8.8   931.3    0.00 
 266   16:50   0.14   93.5    11    4.6   172    10.1   931.3    0.00 
 266   17:00   0.11   92.8    11    3.8   166     7.5   931.2    0.00 
 266   17:10   0.08   91.7    11    3.6   169     7.5   931.2    0.00 
 266   17:20   0.06   90.3    12    2.1   171     5.3   931.1    0.00 
 266   17:30   0.03   87.7    13    2.2   164     3.9   931.1    0.00 
 266   17:40   0.01   84.0    15    2.2   155     3.8   931.1    0.00 
 266   17:50   0.00   81.9    16    2.0   144     3.0   931.1    0.00 
 266   18:00   0.00   81.3    16    2.4   144     3.6   931.3    0.00 
 266   18:10   0.00   81.1    15    2.7   148     4.1   931.4    0.00 
 266   18:20   0.00   81.1    15    3.1   149     4.6   931.6    0.00 
 266   18:30   0.00   80.6    15    3.0   147     4.5   931.7    0.00 
 266   18:40   0.00   80.8    15    3.2   150     4.7   931.9    0.00 
 266   18:50   0.00   80.6    15    3.0   146     5.2   931.9    0.00 
 266   19:00   0.00   80.7    14    2.9   148     4.2   932.0    0.00 
 266   19:10   0.00   80.5    14    2.9   144     4.2   932.2    0.00 
 266   19:20   0.00   80.6    14    2.4   144     3.8   932.2    0.00 
 266   19:30   0.00   79.7    15    2.9   147     4.8   932.2    0.00 
 266   19:40   0.00   79.6    15    2.9   153     5.3   932.3    0.00 

Return to Rogers Spring graphs page.


Western Regional Climate Center,wrcc@dri.edu